Time;durP1;ratioP1;P1;durP2;ratioP2;P2;SDS_P1;SDS_P2;PMS_P1;PMS_P2;Temp;Humidity;BMP_temperature;BMP_pressure;BME280_temperature;BME280_humidity;BME280_pressure;Samples;Min_cycle;Max_cycle;Signal;HPM_P1;HPM_P2
2021/03/29 00:01:42;;;;;;;5.10;3.20;;;;;;;;;;5033045;28;20461;-60
2021/03/29 00:04:09;;;;;;;7.87;3.27;;;;;;;;;;5032927;28;20974;-60
2021/03/29 00:06:37;;;;;;;5.63;3.20;;;;;;;;;;5033369;28;20818;-60
2021/03/29 00:09:04;;;;;;;4.67;3.17;;;;;;;;;;5032808;28;20541;-60
2021/03/29 00:11:34;;;;;;;6.70;3.33;;;;;;;;;;5033579;28;20449;-60
2021/03/29 00:14:01;;;;;;;8.63;3.33;;;;;;;;;;5033175;28;20483;-60
2021/03/29 00:16:28;;;;;;;9.30;2.90;;;;;;;;;;5033185;28;20816;-60
2021/03/29 00:18:55;;;;;;;8.13;3.40;;;;;;;;;;5033185;28;20439;-59
2021/03/29 00:21:22;;;;;;;6.63;3.70;;;;;;;;;;5033165;28;20526;-59
2021/03/29 00:23:49;;;;;;;5.27;3.40;;;;;;;;;;5035982;28;20442;-59
2021/03/29 00:26:16;;;;;;;5.83;3.47;;;;;;;;;;5037388;28;20460;-59
2021/03/29 00:28:44;;;;;;;9.33;4.40;;;;;;;;;;5037315;28;20512;-59
2021/03/29 00:31:11;;;;;;;8.43;4.50;;;;;;;;;;5036792;28;20485;-59
2021/03/29 00:33:38;;;;;;;6.83;3.67;;;;;;;;;;5036687;28;20454;-60
2021/03/29 00:36:05;;;;;;;10.30;4.20;;;;;;;;;;5037370;28;20448;-59
2021/03/29 00:38:33;;;;;;;7.07;4.10;;;;;;;;;;5037809;28;20446;-59
2021/03/29 00:41:00;;;;;;;7.90;3.80;;;;;;;;;;5037037;28;20452;-59
2021/03/29 00:43:28;;;;;;;7.70;3.50;;;;;;;;;;5037705;28;20593;-60
2021/03/29 00:45:56;;;;;;;7.33;4.23;;;;;;;;;;5036829;28;20460;-59
2021/03/29 00:48:24;;;;;;;7.43;3.90;;;;;;;;;;5036697;28;20596;-59
2021/03/29 00:50:52;;;;;;;9.17;3.67;;;;;;;;;;5036509;28;20987;-59
2021/03/29 00:53:20;;;;;;;14.00;4.20;;;;;;;;;;5036985;28;20458;-59
2021/03/29 00:55:47;;;;;;;7.20;3.93;;;;;;;;;;5036686;28;20478;-59
2021/03/29 00:58:14;;;;;;;6.70;3.80;;;;;;;;;;5036288;28;20471;-59
2021/03/29 01:00:42;;;;;;;6.27;3.63;;;;;;;;;;5036105;28;20465;-59
2021/03/29 01:03:13;;;;;;;7.80;4.10;;;;;;;;;;5036436;28;20809;-59
2021/03/29 01:05:40;;;;;;;8.30;4.30;;;;;;;;;;5036059;28;20888;-59
2021/03/29 01:08:07;;;;;;;7.13;4.20;;;;;;;;;;5036308;28;20478;-59
2021/03/29 01:10:34;;;;;;;10.10;3.70;;;;;;;;;;5036362;28;20449;-59
2021/03/29 01:13:03;;;;;;;6.47;3.90;;;;;;;;;;5036257;28;20445;-59
2021/03/29 01:15:30;;;;;;;7.57;4.27;;;;;;;;;;5036160;28;20467;-59
2021/03/29 01:17:58;;;;;;;6.77;4.33;;;;;;;;;;5036211;28;20506;-59
2021/03/29 01:20:35;;;;;;;6.03;3.40;;;;;;;;;;5035883;28;20952;-59
2021/03/29 01:23:03;;;;;;;7.23;4.17;;;;;;;;;;5035886;28;20442;-59
2021/03/29 01:25:32;;;;;;;10.27;4.53;;;;;;;;;;5035991;28;20467;-59
2021/03/29 01:28:01;;;;;;;11.37;4.70;;;;;;;;;;5035977;28;20474;-59
2021/03/29 01:30:32;;;;;;;15.40;5.50;;;;;;;;;;5036000;28;20853;-59
2021/03/29 01:33:00;;;;;;;9.93;4.60;;;;;;;;;;5035655;28;20427;-59
2021/03/29 01:35:30;;;;;;;9.57;4.23;;;;;;;;;;5034890;28;20467;-59
2021/03/29 01:37:57;;;;;;;9.90;5.00;;;;;;;;;;5035544;28;20445;-59
2021/03/29 01:40:25;;;;;;;8.10;3.83;;;;;;;;;;5035860;28;20443;-59
2021/03/29 01:42:52;;;;;;;6.37;3.97;;;;;;;;;;5035468;28;20456;-59
2021/03/29 01:45:20;;;;;;;8.03;4.90;;;;;;;;;;5035450;28;20478;-60
2021/03/29 01:47:47;;;;;;;7.80;4.47;;;;;;;;;;5035642;28;20458;-59
2021/03/29 01:50:15;;;;;;;6.00;4.53;;;;;;;;;;5035609;28;20439;-60
2021/03/29 01:52:42;;;;;;;7.27;5.07;;;;;;;;;;5035254;28;20939;-59
2021/03/29 01:55:09;;;;;;;10.60;4.67;;;;;;;;;;5035497;28;20458;-60
2021/03/29 01:57:36;;;;;;;12.40;4.67;;;;;;;;;;5035411;28;20448;-59
2021/03/29 02:00:07;;;;;;;10.90;4.90;;;;;;;;;;5035258;28;20797;-59
2021/03/29 02:02:35;;;;;;;8.50;4.40;;;;;;;;;;5035216;28;20463;-59
2021/03/29 02:05:02;;;;;;;9.10;4.30;;;;;;;;;;5035486;28;20464;-59
2021/03/29 02:07:29;;;;;;;8.87;4.80;;;;;;;;;;5035371;28;20464;-59
2021/03/29 02:09:55;;;;;;;11.23;5.13;;;;;;;;;;5035269;28;20502;-59
2021/03/29 02:12:23;;;;;;;15.03;5.00;;;;;;;;;;5035306;28;20448;-60
2021/03/29 02:14:50;;;;;;;8.20;4.30;;;;;;;;;;5035296;28;20463;-60
2021/03/29 02:17:17;;;;;;;10.80;5.23;;;;;;;;;;5035804;28;20912;-60
2021/03/29 02:19:45;;;;;;;9.97;4.80;;;;;;;;;;5035068;28;20447;-59
2021/03/29 02:22:12;;;;;;;8.60;4.77;;;;;;;;;;5035434;28;20455;-59
2021/03/29 02:24:39;;;;;;;7.03;4.30;;;;;;;;;;5035051;28;20474;-59
2021/03/29 02:27:06;;;;;;;11.00;5.23;;;;;;;;;;5035331;28;20454;-59
2021/03/29 02:29:33;;;;;;;8.93;5.37;;;;;;;;;;5036307;28;20478;-59
2021/03/29 02:32:00;;;;;;;9.13;4.73;;;;;;;;;;5034543;28;20888;-59
2021/03/29 02:34:27;;;;;;;9.47;5.67;;;;;;;;;;5034794;28;20476;-59
2021/03/29 02:36:55;;;;;;;15.40;4.83;;;;;;;;;;5034381;28;20967;-59
2021/03/29 02:39:22;;;;;;;9.37;5.00;;;;;;;;;;5034714;28;20520;-59
2021/03/29 02:41:50;;;;;;;13.53;5.13;;;;;;;;;;5034639;28;20849;-59
2021/03/29 02:44:17;;;;;;;6.20;4.77;;;;;;;;;;5034499;28;20816;-59
2021/03/29 02:46:44;;;;;;;9.47;4.63;;;;;;;;;;5033180;28;20938;-59
2021/03/29 02:49:12;;;;;;;12.67;5.50;;;;;;;;;;5034414;28;20846;-59
2021/03/29 02:51:41;;;;;;;10.60;4.60;;;;;;;;;;5034088;28;20446;-59
2021/03/29 02:54:10;;;;;;;8.50;4.33;;;;;;;;;;5033956;28;20852;-59
2021/03/29 02:56:38;;;;;;;8.13;4.28;;;;;;;;;;5034324;28;20503;-59
2021/03/29 02:59:07;;;;;;;11.97;5.00;;;;;;;;;;5034428;28;20199;-59
2021/03/29 03:01:35;;;;;;;6.13;4.00;;;;;;;;;;5033888;28;20460;-59
2021/03/29 03:04:02;;;;;;;8.33;4.40;;;;;;;;;;5034220;28;20473;-59
2021/03/29 03:06:30;;;;;;;8.50;4.50;;;;;;;;;;5034121;28;20442;-59
2021/03/29 03:08:59;;;;;;;9.37;4.30;;;;;;;;;;5033950;28;20853;-59
2021/03/29 03:11:26;;;;;;;7.67;4.00;;;;;;;;;;5034093;28;20858;-59
2021/03/29 03:13:53;;;;;;;7.60;3.93;;;;;;;;;;5033648;28;20453;-59
2021/03/29 03:16:20;;;;;;;13.90;4.00;;;;;;;;;;5033942;28;20525;-59
2021/03/29 03:18:48;;;;;;;9.60;4.00;;;;;;;;;;5033724;28;20460;-59
2021/03/29 03:21:18;;;;;;;10.63;4.33;;;;;;;;;;5033793;28;20293;-59
2021/03/29 03:23:51;;;;;;;10.85;4.10;;;;;;;;;;5034732;28;20445;-60
2021/03/29 03:26:18;;;;;;;13.43;3.70;;;;;;;;;;5034590;28;20205;-59
2021/03/29 03:28:45;;;;;;;9.40;3.80;;;;;;;;;;5034677;28;20483;-59
2021/03/29 03:31:12;;;;;;;7.17;4.10;;;;;;;;;;5034165;28;20484;-59
2021/03/29 03:33:39;;;;;;;7.37;4.00;;;;;;;;;;5033614;28;20508;-59
2021/03/29 03:36:06;;;;;;;5.20;3.43;;;;;;;;;;5033268;28;20957;-59
2021/03/29 03:38:35;;;;;;;7.15;4.15;;;;;;;;;;5033689;28;20446;-59
2021/03/29 03:41:03;;;;;;;5.60;3.57;;;;;;;;;;5033583;28;20252;-59
2021/03/29 03:43:31;;;;;;;8.17;3.80;;;;;;;;;;5033861;28;20441;-59
2021/03/29 03:46:01;;;;;;;11.37;3.83;;;;;;;;;;5033302;28;20466;-59
2021/03/29 03:48:28;;;;;;;6.10;3.07;;;;;;;;;;5033053;28;20997;-59
2021/03/29 03:50:55;;;;;;;9.63;3.70;;;;;;;;;;5033361;28;20499;-59
2021/03/29 03:53:23;;;;;;;10.43;4.30;;;;;;;;;;5033417;28;20518;-59
2021/03/29 03:55:53;;;;;;;9.03;3.53;;;;;;;;;;5033355;28;20476;-59
2021/03/29 03:58:20;;;;;;;5.33;2.80;;;;;;;;;;5033156;28;20583;-59
2021/03/29 04:00:47;;;;;;;10.43;4.00;;;;;;;;;;5032688;28;21030;-59
2021/03/29 04:03:14;;;;;;;8.73;3.50;;;;;;;;;;5033319;28;20477;-59
2021/03/29 04:07:58;;;;;;;9.43;3.70;;;;;;;;;;5111886;27;20598;-60
2021/03/29 04:10:35;;;;;;;9.85;3.45;;;;;;;;;;5111207;28;20205;-60
2021/03/29 04:13:02;;;;;;;10.37;3.80;;;;;;;;;;5111075;28;20206;-60
2021/03/29 04:15:29;;;;;;;8.53;3.67;;;;;;;;;;5111230;28;20471;-60
2021/03/29 04:17:56;;;;;;;7.23;3.40;;;;;;;;;;5112734;28;20790;-60
2021/03/29 04:20:22;;;;;;;8.38;4.15;;;;;;;;;;5121024;28;20497;-61
2021/03/29 04:22:49;;;;;;;10.80;3.73;;;;;;;;;;5113199;28;20204;-61
2021/03/29 04:25:17;;;;;;;7.97;3.37;;;;;;;;;;5111143;28;21008;-60
2021/03/29 04:27:44;;;;;;;8.53;3.40;;;;;;;;;;5110763;28;20476;-59
2021/03/29 04:30:11;;;;;;;6.43;2.87;;;;;;;;;;5111215;28;21021;-60
2021/03/29 04:32:38;;;;;;;9.03;3.50;;;;;;;;;;5111446;28;20441;-60
2021/03/29 04:35:05;;;;;;;8.30;3.67;;;;;;;;;;5111084;28;20462;-60
2021/03/29 04:37:32;;;;;;;10.37;3.47;;;;;;;;;;5111315;28;20493;-60
2021/03/29 04:39:59;;;;;;;5.33;3.30;;;;;;;;;;5111676;28;20442;-60
2021/03/29 04:42:27;;;;;;;8.73;3.50;;;;;;;;;;5111107;28;20975;-60
2021/03/29 04:44:53;;;;;;;6.50;2.87;;;;;;;;;;5111073;28;20459;-60
2021/03/29 04:47:20;;;;;;;9.18;3.10;;;;;;;;;;5111184;28;20484;-59
2021/03/29 04:49:47;;;;;;;11.77;3.50;;;;;;;;;;5110725;28;20207;-60
2021/03/29 04:52:14;;;;;;;11.20;3.87;;;;;;;;;;5110777;28;20457;-60
2021/03/29 04:54:40;;;;;;;7.00;2.83;;;;;;;;;;5110575;28;20496;-60
2021/03/29 04:57:07;;;;;;;5.00;2.60;;;;;;;;;;5110668;28;20444;-60
2021/03/29 04:59:35;;;;;;;7.80;3.57;;;;;;;;;;5110310;28;20446;-59
2021/03/29 05:02:02;;;;;;;6.40;2.77;;;;;;;;;;5110376;28;20845;-61
2021/03/29 05:04:29;;;;;;;8.23;4.00;;;;;;;;;;5110289;28;20460;-60
2021/03/29 05:06:55;;;;;;;8.57;2.47;;;;;;;;;;5110168;28;20489;-60
2021/03/29 05:09:22;;;;;;;9.27;3.20;;;;;;;;;;5110932;28;20822;-60
2021/03/29 05:11:50;;;;;;;12.53;3.23;;;;;;;;;;5109913;28;20948;-60
2021/03/29 05:14:16;;;;;;;8.67;3.63;;;;;;;;;;5110449;28;20561;-60
2021/03/29 05:16:44;;;;;;;7.33;3.60;;;;;;;;;;5109410;28;20947;-60
2021/03/29 05:19:11;;;;;;;6.03;2.97;;;;;;;;;;5097190;28;20445;-60
2021/03/29 05:21:38;;;;;;;11.83;3.13;;;;;;;;;;5096434;28;20442;-61
2021/03/29 05:24:05;;;;;;;5.83;2.63;;;;;;;;;;5096870;28;20522;-60
2021/03/29 05:26:32;;;;;;;6.60;2.87;;;;;;;;;;5095754;28;20480;-60
2021/03/29 05:28:59;;;;;;;13.47;4.30;;;;;;;;;;5096039;28;20518;-61
2021/03/29 05:31:26;;;;;;;5.97;2.90;;;;;;;;;;5096195;28;20513;-60
2021/03/29 05:33:53;;;;;;;8.03;3.70;;;;;;;;;;5095903;28;20505;-61
2021/03/29 05:36:20;;;;;;;9.17;3.50;;;;;;;;;;5095600;28;20962;-61
2021/03/29 05:38:47;;;;;;;7.57;3.00;;;;;;;;;;5095988;28;20449;-61
2021/03/29 05:41:14;;;;;;;7.60;3.10;;;;;;;;;;5095999;28;20503;-60
2021/03/29 05:43:42;;;;;;;8.43;3.20;;;;;;;;;;5095367;28;20445;-60
2021/03/29 05:46:08;;;;;;;8.53;2.90;;;;;;;;;;5095978;28;20534;-60
2021/03/29 05:48:36;;;;;;;7.50;3.33;;;;;;;;;;5095272;28;20515;-60
2021/03/29 05:51:04;;;;;;;10.50;3.40;;;;;;;;;;5095600;28;20449;-60
2021/03/29 05:53:30;;;;;;;10.07;2.80;;;;;;;;;;5095694;28;20445;-61
2021/03/29 05:55:59;;;;;;;5.10;3.00;;;;;;;;;;5095489;28;20531;-60
2021/03/29 06:01:13;;;;;;;8.33;2.87;;;;;;;;;;5091562;28;20472;-60
2021/03/29 06:03:40;;;;;;;6.17;2.67;;;;;;;;;;5095724;28;20449;-60
2021/03/29 06:06:28;;;;;;;5.17;2.60;;;;;;;;;;5095198;28;20526;-60
2021/03/29 06:08:56;;;;;;;8.60;3.23;;;;;;;;;;5104978;28;20510;-60
2021/03/29 06:11:24;;;;;;;9.77;3.13;;;;;;;;;;5097359;28;20845;-61
2021/03/29 06:14:05;;;;;;;3.83;2.77;;;;;;;;;;5095128;28;20438;-60
2021/03/29 06:16:32;;;;;;;6.53;2.67;;;;;;;;;;5095500;28;20427;-61
2021/03/29 06:18:59;;;;;;;11.07;2.97;;;;;;;;;;5095356;28;20567;-59
2021/03/29 06:21:26;;;;;;;9.37;2.93;;;;;;;;;;5095431;28;20449;-59
2021/03/29 06:23:58;;;;;;;8.03;3.53;;;;;;;;;;5096188;28;20540;-60
2021/03/29 06:26:27;;;;;;;5.57;3.07;;;;;;;;;;5103357;28;20463;-60
2021/03/29 06:28:54;;;;;;;6.63;2.80;;;;;;;;;;5099675;28;20563;-61
2021/03/29 06:31:22;;;;;;;4.67;2.60;;;;;;;;;;5095048;28;20470;-60
2021/03/29 06:33:49;;;;;;;5.37;2.67;;;;;;;;;;5095486;28;20816;-60
2021/03/29 06:36:25;;;;;;;8.57;3.63;;;;;;;;;;5095114;28;20441;-60
2021/03/29 06:38:51;;;;;;;6.37;2.90;;;;;;;;;;5094021;28;20480;-60
2021/03/29 06:41:25;;;;;;;7.33;2.80;;;;;;;;;;5094677;28;20442;-60
2021/03/29 06:43:52;;;;;;;12.03;3.20;;;;;;;;;;5094607;28;20462;-60
2021/03/29 06:46:23;;;;;;;9.77;2.67;;;;;;;;;;5094398;28;21047;-60
2021/03/29 06:48:50;;;;;;;6.30;2.87;;;;;;;;;;5094838;28;20457;-58
2021/03/29 06:51:17;;;;;;;6.83;2.73;;;;;;;;;;5094499;28;20449;-60
2021/03/29 06:53:45;;;;;;;7.03;2.53;;;;;;;;;;5094751;28;20590;-59
2021/03/29 06:56:35;;;;;;;5.40;2.57;;;;;;;;;;5094573;28;20434;-60
2021/03/29 06:59:11;;;;;;;5.23;2.67;;;;;;;;;;5094545;28;20415;-60
2021/03/29 07:01:38;;;;;;;3.90;2.20;;;;;;;;;;5093820;28;20810;-60
2021/03/29 07:04:05;;;;;;;6.83;2.90;;;;;;;;;;5093910;28;20522;-59
2021/03/29 07:06:33;;;;;;;4.30;2.73;;;;;;;;;;5093801;28;20482;-60
2021/03/29 07:09:05;;;;;;;10.40;3.53;;;;;;;;;;5094520;28;20495;-60
2021/03/29 07:11:32;;;;;;;7.67;3.17;;;;;;;;;;5095024;28;20432;-60
2021/03/29 07:14:00;;;;;;;5.97;2.60;;;;;;;;;;5094437;28;20469;-61
2021/03/29 07:16:28;;;;;;;5.87;2.67;;;;;;;;;;5094518;28;20441;-60
2021/03/29 07:18:56;;;;;;;5.47;2.80;;;;;;;;;;5095003;28;20476;-59
2021/03/29 07:21:23;;;;;;;8.33;2.47;;;;;;;;;;5094765;28;20760;-61
2021/03/29 07:23:51;;;;;;;4.80;2.70;;;;;;;;;;5093882;28;20438;-61
2021/03/29 07:26:26;;;;;;;4.70;2.30;;;;;;;;;;5094299;28;20501;-60
2021/03/29 07:28:54;;;;;;;7.07;2.50;;;;;;;;;;5093658;28;20450;-60
2021/03/29 07:31:41;;;;;;;6.73;3.27;;;;;;;;;;5093485;28;20957;-61
2021/03/29 07:34:09;;;;;;;7.83;2.50;;;;;;;;;;5093339;28;20969;-61
2021/03/29 07:36:39;;;;;;;6.50;2.60;;;;;;;;;;5093723;28;20442;-60
2021/03/29 07:39:06;;;;;;;12.80;2.87;;;;;;;;;;5093855;28;20441;-61
2021/03/29 07:41:33;;;;;;;8.60;3.10;;;;;;;;;;5093473;28;20477;-59
2021/03/29 07:44:13;;;;;;;7.40;3.43;;;;;;;;;;5093917;28;20465;-61
2021/03/29 07:46:42;;;;;;;11.93;3.30;;;;;;;;;;5093918;28;20485;-60
2021/03/29 07:49:28;;;;;;;6.53;2.63;;;;;;;;;;5093586;28;20442;-61
2021/03/29 07:52:09;;;;;;;9.00;3.13;;;;;;;;;;5093756;28;20471;-61
2021/03/29 07:54:52;;;;;;;12.13;3.50;;;;;;;;;;5097952;28;20466;-62
2021/03/29 07:57:34;;;;;;;8.50;3.07;;;;;;;;;;5102318;28;20430;-63
2021/03/29 08:00:00;;;;;;;9.43;3.20;;;;;;;;;;5097839;28;20540;-61
2021/03/29 08:02:33;;;;;;;7.17;2.73;;;;;;;;;;5098687;28;20438;-61
2021/03/29 08:05:00;;;;;;;7.80;3.20;;;;;;;;;;5099653;28;20814;-61
2021/03/29 08:07:37;;;;;;;6.43;2.73;;;;;;;;;;5098479;28;20671;-60
2021/03/29 08:10:04;;;;;;;11.20;3.00;;;;;;;;;;5093596;28;20442;-61
2021/03/29 08:12:32;;;;;;;3.87;2.33;;;;;;;;;;5093346;28;20477;-61
2021/03/29 08:15:00;;;;;;;9.33;4.00;;;;;;;;;;5093443;28;20845;-60
2021/03/29 08:17:38;;;;;;;7.73;2.40;;;;;;;;;;5093518;28;20445;-62
2021/03/29 08:20:12;;;;;;;5.30;2.40;;;;;;;;;;5093221;28;20444;-61
2021/03/29 08:22:39;;;;;;;6.50;2.67;;;;;;;;;;5093326;28;20427;-62
2021/03/29 08:25:06;;;;;;;7.13;2.53;;;;;;;;;;5092979;28;20458;-62
2021/03/29 08:27:33;;;;;;;5.50;2.40;;;;;;;;;;5093095;28;20481;-61
2021/03/29 08:30:10;;;;;;;7.73;2.80;;;;;;;;;;5093040;28;20442;-59
2021/03/29 08:32:39;;;;;;;7.53;3.30;;;;;;;;;;5093297;28;20430;-60
2021/03/29 08:35:07;;;;;;;16.27;3.63;;;;;;;;;;5092867;28;20497;-61
2021/03/29 08:37:36;;;;;;;7.30;2.53;;;;;;;;;;5092638;28;20434;-60
2021/03/29 08:40:06;;;;;;;7.80;2.77;;;;;;;;;;5092977;28;20454;-60
2021/03/29 08:42:34;;;;;;;7.53;2.63;;;;;;;;;;5093002;28;20507;-60
2021/03/29 08:45:01;;;;;;;4.13;2.80;;;;;;;;;;5093372;28;20518;-61
2021/03/29 08:47:28;;;;;;;15.70;3.03;;;;;;;;;;5093185;28;20473;-63
2021/03/29 08:49:56;;;;;;;5.10;2.33;;;;;;;;;;5092779;28;20938;-63
2021/03/29 08:52:23;;;;;;;7.10;2.87;;;;;;;;;;5093215;28;20442;-62
2021/03/29 08:54:51;;;;;;;6.27;2.60;;;;;;;;;;5096962;28;20523;-60
2021/03/29 08:57:18;;;;;;;5.50;2.70;;;;;;;;;;5097133;28;20457;-60
2021/03/29 08:59:45;;;;;;;6.90;2.57;;;;;;;;;;5096819;28;21008;-61
2021/03/29 09:02:15;;;;;;;12.20;2.90;;;;;;;;;;5096191;28;20449;-61
2021/03/29 09:04:56;;;;;;;4.30;2.47;;;;;;;;;;5096690;28;20550;-61
2021/03/29 09:07:29;;;;;;;7.70;2.77;;;;;;;;;;5096645;28;20478;-62
2021/03/29 09:09:56;;;;;;;9.53;3.60;;;;;;;;;;5097252;28;20426;-64
2021/03/29 09:12:25;;;;;;;5.70;2.50;;;;;;;;;;5096826;28;20443;-63
2021/03/29 09:14:52;;;;;;;5.30;2.40;;;;;;;;;;5097324;28;20469;-60
2021/03/29 09:17:26;;;;;;;3.90;2.23;;;;;;;;;;5096016;28;20552;-62
2021/03/29 09:19:53;;;;;;;5.03;3.07;;;;;;;;;;5096827;28;20464;-61
2021/03/29 09:22:28;;;;;;;4.57;2.40;;;;;;;;;;5096651;28;20450;-60
2021/03/29 09:24:55;;;;;;;3.23;2.10;;;;;;;;;;5095979;28;20969;-60
2021/03/29 09:27:28;;;;;;;5.67;2.37;;;;;;;;;;5096185;28;20503;-61
2021/03/29 09:29:55;;;;;;;5.40;2.60;;;;;;;;;;5097099;28;20525;-62
2021/03/29 09:32:22;;;;;;;8.10;3.20;;;;;;;;;;5097155;28;20451;-62
2021/03/29 09:34:50;;;;;;;7.40;2.73;;;;;;;;;;5096421;28;20977;-62
2021/03/29 09:37:18;;;;;;;6.17;2.50;;;;;;;;;;5097584;28;20957;-61
2021/03/29 09:39:46;;;;;;;10.13;2.30;;;;;;;;;;5096430;28;20442;-60
2021/03/29 09:42:16;;;;;;;8.87;3.10;;;;;;;;;;5097292;28;20890;-61
2021/03/29 09:44:43;;;;;;;4.70;2.03;;;;;;;;;;5098470;28;20997;-61
2021/03/29 09:47:10;;;;;;;4.63;2.40;;;;;;;;;;5104570;28;20481;-61
2021/03/29 09:49:49;;;;;;;5.20;2.30;;;;;;;;;;5100088;28;20438;-61
2021/03/29 09:52:16;;;;;;;5.27;2.50;;;;;;;;;;5098316;28;20813;-60
2021/03/29 09:54:48;;;;;;;6.10;2.37;;;;;;;;;;5096278;28;20496;-61
2021/03/29 09:57:16;;;;;;;4.83;2.33;;;;;;;;;;5095485;28;20891;-61
2021/03/29 09:59:44;;;;;;;5.90;2.90;;;;;;;;;;5095613;28;20446;-60
2021/03/29 10:02:11;;;;;;;5.13;2.40;;;;;;;;;;5098731;28;20443;-61
2021/03/29 10:04:38;;;;;;;5.50;2.20;;;;;;;;;;5107844;28;20549;-60
2021/03/29 10:07:12;;;;;;;11.00;2.20;;;;;;;;;;5096675;28;20482;-61
2021/03/29 10:09:39;;;;;;;5.77;2.90;;;;;;;;;;5095670;28;20825;-60
2021/03/29 10:12:07;;;;;;;5.47;2.73;;;;;;;;;;5095537;28;20822;-61
2021/03/29 10:14:35;;;;;;;5.60;2.00;;;;;;;;;;5096038;28;20496;-61
2021/03/29 10:17:02;;;;;;;5.50;2.50;;;;;;;;;;5095328;28;20450;-62
2021/03/29 10:19:33;;;;;;;7.67;2.60;;;;;;;;;;5095115;28;20496;-60
2021/03/29 10:22:05;;;;;;;6.57;2.70;;;;;;;;;;5095241;28;20806;-62
2021/03/29 10:24:32;;;;;;;10.20;5.20;;;;;;;;;;5095489;28;20485;-60
2021/03/29 10:27:00;;;;;;;5.60;2.30;;;;;;;;;;5095182;28;20478;-61
2021/03/29 10:29:35;;;;;;;4.17;2.27;;;;;;;;;;5095286;28;20957;-60
2021/03/29 10:32:02;;;;;;;5.30;2.17;;;;;;;;;;5095997;28;20430;-61
2021/03/29 10:34:29;;;;;;;7.60;2.70;;;;;;;;;;5095025;28;20554;-60
2021/03/29 10:36:56;;;;;;;5.90;2.50;;;;;;;;;;5094796;28;20507;-60
2021/03/29 10:39:22;;;;;;;5.30;2.80;;;;;;;;;;5094672;28;20450;-61
2021/03/29 10:41:49;;;;;;;4.03;2.30;;;;;;;;;;5094927;28;20828;-60
2021/03/29 10:44:16;;;;;;;5.87;2.80;;;;;;;;;;5097772;28;20473;-61
2021/03/29 10:46:43;;;;;;;4.67;2.07;;;;;;;;;;5097349;28;20478;-61
2021/03/29 10:49:10;;;;;;;3.90;2.00;;;;;;;;;;5097591;28;20444;-61
2021/03/29 10:51:37;;;;;;;8.87;2.83;;;;;;;;;;5098312;28;20438;-61
2021/03/29 10:54:04;;;;;;;8.00;2.40;;;;;;;;;;5102783;28;20488;-61
2021/03/29 10:56:31;;;;;;;6.10;2.60;;;;;;;;;;5103021;28;20439;-61
2021/03/29 10:58:58;;;;;;;4.03;2.50;;;;;;;;;;5098607;28;20519;-60
2021/03/29 11:01:24;;;;;;;5.30;3.13;;;;;;;;;;5096556;28;20438;-60
2021/03/29 11:03:52;;;;;;;5.90;2.83;;;;;;;;;;5093941;28;20442;-61
2021/03/29 11:06:19;;;;;;;5.80;2.67;;;;;;;;;;5094378;28;20454;-59
2021/03/29 11:08:45;;;;;;;8.00;3.20;;;;;;;;;;5095124;28;20450;-62
2021/03/29 11:11:12;;;;;;;4.40;2.67;;;;;;;;;;5094572;28;20473;-61
2021/03/29 11:13:39;;;;;;;5.33;2.60;;;;;;;;;;5094062;28;20901;-60
2021/03/29 11:16:09;;;;;;;5.13;2.47;;;;;;;;;;5093315;28;20453;-60
2021/03/29 11:18:36;;;;;;;5.37;2.80;;;;;;;;;;5093927;28;21008;-61
2021/03/29 11:21:03;;;;;;;5.17;2.40;;;;;;;;;;5094298;28;20452;-60
2021/03/29 11:23:30;;;;;;;10.07;2.60;;;;;;;;;;5093900;28;20434;-61
2021/03/29 11:25:57;;;;;;;4.27;2.00;;;;;;;;;;5094073;28;20470;-60
2021/03/29 11:28:24;;;;;;;6.43;2.73;;;;;;;;;;5093889;28;20482;-60
2021/03/29 11:30:50;;;;;;;5.87;2.80;;;;;;;;;;5094451;28;20445;-61
2021/03/29 11:33:17;;;;;;;6.87;2.53;;;;;;;;;;5094757;28;20522;-61
2021/03/29 11:35:44;;;;;;;7.23;2.50;;;;;;;;;;5093829;28;20467;-60
2021/03/29 11:38:12;;;;;;;9.43;3.27;;;;;;;;;;5094077;28;20443;-61
2021/03/29 11:40:38;;;;;;;6.10;3.73;;;;;;;;;;5093925;28;20511;-61
2021/03/29 11:43:05;;;;;;;6.00;2.40;;;;;;;;;;5094162;28;20442;-61
2021/03/29 11:45:32;;;;;;;6.07;2.57;;;;;;;;;;5093800;28;20465;-61
2021/03/29 11:47:59;;;;;;;7.53;2.90;;;;;;;;;;5094221;28;20481;-61
2021/03/29 11:50:26;;;;;;;5.10;2.77;;;;;;;;;;5096697;28;20957;-60
2021/03/29 11:52:53;;;;;;;4.87;2.20;;;;;;;;;;5096182;28;20504;-61
2021/03/29 11:55:20;;;;;;;5.40;2.40;;;;;;;;;;5094793;28;20986;-60
2021/03/29 11:57:47;;;;;;;8.20;2.73;;;;;;;;;;5093879;28;21048;-61
2021/03/29 12:00:19;;;;;;;3.87;2.50;;;;;;;;;;5093948;28;20446;-60
2021/03/29 12:02:53;;;;;;;7.57;2.97;;;;;;;;;;5094822;28;20490;-60
2021/03/29 12:05:21;;;;;;;3.93;2.57;;;;;;;;;;5094932;28;20466;-61
2021/03/29 12:07:50;;;;;;;5.57;2.80;;;;;;;;;;5094137;28;20994;-62
2021/03/29 12:13:03;;;;;;;6.13;3.00;;;;;;;;;;5093673;28;20393;-63
2021/03/29 12:15:30;;;;;;;4.00;2.47;;;;;;;;;;5093459;28;20462;-62
2021/03/29 12:17:57;;;;;;;5.70;3.57;;;;;;;;;;5093172;28;20464;-62
2021/03/29 12:20:24;;;;;;;9.77;3.03;;;;;;;;;;5093057;28;20870;-61
2021/03/29 12:22:52;;;;;;;4.77;2.53;;;;;;;;;;5093185;28;20446;-60
2021/03/29 12:25:21;;;;;;;3.77;2.53;;;;;;;;;;5094028;28;20465;-60
2021/03/29 12:27:48;;;;;;;4.80;2.43;;;;;;;;;;5106948;28;20482;-61
2021/03/29 12:30:18;;;;;;;3.90;2.70;;;;;;;;;;5111719;28;20442;-61
2021/03/29 12:32:45;;;;;;;14.73;3.43;;;;;;;;;;5109703;28;20454;-60
2021/03/29 12:35:16;;;;;;;4.93;2.60;;;;;;;;;;5108384;28;20472;-60
2021/03/29 12:37:43;;;;;;;4.70;3.07;;;;;;;;;;5110206;28;20427;-60
2021/03/29 12:40:12;;;;;;;7.50;2.93;;;;;;;;;;5109720;28;20482;-61
2021/03/29 12:42:48;;;;;;;9.67;3.40;;;;;;;;;;5106522;28;20552;-60
2021/03/29 12:45:21;;;;;;;7.40;3.27;;;;;;;;;;5107167;28;20480;-60
2021/03/29 12:47:47;;;;;;;4.93;2.63;;;;;;;;;;5108757;28;20462;-60
2021/03/29 12:50:15;;;;;;;6.57;3.00;;;;;;;;;;5106730;28;20905;-61
2021/03/29 12:52:43;;;;;;;5.83;3.27;;;;;;;;;;5106408;28;20461;-61
2021/03/29 12:55:13;;;;;;;5.77;2.73;;;;;;;;;;5106433;28;20567;-61
2021/03/29 12:57:40;;;;;;;6.20;3.00;;;;;;;;;;5106276;28;20469;-61
2021/03/29 13:00:07;;;;;;;8.30;2.63;;;;;;;;;;5103608;28;20480;-61
2021/03/29 13:02:36;;;;;;;4.30;2.73;;;;;;;;;;5100347;28;20438;-60
2021/03/29 13:05:03;;;;;;;3.97;2.80;;;;;;;;;;5102710;28;20872;-60
2021/03/29 13:07:36;;;;;;;4.47;3.17;;;;;;;;;;5101398;28;20482;-60
2021/03/29 13:10:10;;;;;;;5.60;3.33;;;;;;;;;;5100745;28;20430;-60
2021/03/29 13:12:37;;;;;;;8.43;2.50;;;;;;;;;;5101404;28;20525;-61
2021/03/29 13:15:05;;;;;;;5.77;2.40;;;;;;;;;;5103541;28;20883;-61
2021/03/29 13:17:35;;;;;;;3.50;1.97;;;;;;;;;;5098464;28;20542;-61
2021/03/29 13:20:03;;;;;;;2.50;1.90;;;;;;;;;;5101214;28;20446;-61
2021/03/29 13:22:30;;;;;;;3.27;1.97;;;;;;;;;;5098765;28;20449;-60
2021/03/29 13:24:57;;;;;;;5.63;1.97;;;;;;;;;;5098969;28;20484;-61
2021/03/29 13:27:23;;;;;;;4.40;2.17;;;;;;;;;;5097525;28;20481;-61
2021/03/29 13:29:50;;;;;;;2.70;2.07;;;;;;;;;;5097926;28;20525;-60
2021/03/29 13:32:17;;;;;;;3.83;2.53;;;;;;;;;;5097029;28;20446;-61
2021/03/29 13:34:44;;;;;;;4.50;2.30;;;;;;;;;;5097126;28;20465;-61
2021/03/29 13:37:11;;;;;;;2.57;2.00;;;;;;;;;;5096363;28;20949;-61
2021/03/29 13:39:38;;;;;;;4.80;2.53;;;;;;;;;;5096585;28;20446;-60
2021/03/29 13:42:06;;;;;;;7.00;2.37;;;;;;;;;;5097516;28;20449;-60
2021/03/29 13:44:32;;;;;;;4.00;2.10;;;;;;;;;;5102994;28;20489;-61
2021/03/29 13:46:59;;;;;;;6.03;2.43;;;;;;;;;;5103292;28;20610;-61
2021/03/29 13:49:29;;;;;;;3.63;2.00;;;;;;;;;;5097643;28;20438;-60
2021/03/29 13:51:56;;;;;;;6.10;2.40;;;;;;;;;;5097982;28;20470;-60
2021/03/29 13:54:24;;;;;;;6.00;3.17;;;;;;;;;;5097993;28;20462;-60
2021/03/29 13:56:50;;;;;;;3.40;2.20;;;;;;;;;;5099172;28;20446;-60
2021/03/29 13:59:17;;;;;;;3.83;1.83;;;;;;;;;;5105586;28;20810;-62
2021/03/29 14:01:44;;;;;;;3.37;1.80;;;;;;;;;;5104620;28;20449;-62
2021/03/29 14:04:14;;;;;;;6.20;2.37;;;;;;;;;;5103791;28;20463;-62
2021/03/29 14:06:41;;;;;;;7.70;2.70;;;;;;;;;;5099432;28;20497;-61
2021/03/29 14:09:08;;;;;;;3.93;2.00;;;;;;;;;;5098115;28;20476;-61
2021/03/29 14:11:37;;;;;;;6.30;3.27;;;;;;;;;;5097031;28;20484;-61
2021/03/29 14:14:04;;;;;;;4.47;2.27;;;;;;;;;;5096158;28;20600;-59
2021/03/29 14:16:31;;;;;;;4.17;2.40;;;;;;;;;;5096898;28;20442;-61
2021/03/29 14:18:58;;;;;;;4.17;2.67;;;;;;;;;;5095748;28;20477;-61
2021/03/29 14:21:25;;;;;;;4.50;2.27;;;;;;;;;;5096895;28;20848;-61
2021/03/29 14:23:52;;;;;;;5.20;2.20;;;;;;;;;;5095233;28;20438;-61
2021/03/29 14:26:19;;;;;;;4.00;2.50;;;;;;;;;;5095353;28;20457;-61
2021/03/29 14:28:47;;;;;;;4.73;2.10;;;;;;;;;;5094931;28;20482;-62
2021/03/29 14:31:14;;;;;;;3.00;2.43;;;;;;;;;;5094972;28;20442;-60
2021/03/29 14:33:43;;;;;;;4.97;2.30;;;;;;;;;;5094512;28;20450;-60
2021/03/29 14:36:26;;;;;;;4.13;2.90;;;;;;;;;;5094968;28;20484;-61
2021/03/29 14:39:01;;;;;;;4.83;2.77;;;;;;;;;;5095309;28;20430;-59
2021/03/29 14:42:00;;;;;;;5.90;3.17;;;;;;;;;;5095251;28;20436;-61
2021/03/29 14:44:32;;;;;;;3.10;2.00;;;;;;;;;;5094869;28;20473;-60
2021/03/29 14:47:00;;;;;;;4.17;3.00;;;;;;;;;;5095289;28;20547;-59
2021/03/29 14:49:27;;;;;;;4.83;2.30;;;;;;;;;;5094806;28;20461;-61
2021/03/29 14:51:55;;;;;;;5.27;2.63;;;;;;;;;;5093975;28;20453;-61
2021/03/29 14:54:22;;;;;;;3.57;2.60;;;;;;;;;;5094512;28;20461;-61
2021/03/29 14:56:48;;;;;;;5.23;2.70;;;;;;;;;;5094516;28;20549;-60